Date,TemperatureHighF,TemperatureAvgF,TemperatureLowF,DewpointHighF,DewpointAvgF,DewpointLowF,HumidityHigh,HumidityAvg,HumidityLow,PressureMaxIn,PressureMinIn,WindSpeedMaxMPH,WindSpeedAvgMPH,GustSpeedMaxMPH,PrecipitationSumIn
2013-1-1,31,24,10,28,16,4,89,68,47,29.79,29.56,33,8,35,0.00
2013-1-2,16,9,3,4,1,-6,73,63,50,29.97,29.76,32,9,34,0.00
2013-1-3,18,10,1,8,3,-6,76,65,54,30.05,29.92,20,5,21,0.00
2013-1-4,34,26,13,28,20,4,86,75,67,29.92,29.70,17,5,18,0.00
2013-1-5,34,27,15,29,17,8,84,63,42,30.29,29.69,39,8,39,0.00
2013-1-6,28,23,13,28,21,4,99,89,67,30.26,29.91,13,3,13,0.00
2013-1-7,23,16,10,21,12,4,91,78,61,30.43,29.98,25,6,25,0.00
2013-1-8,41,36,16,33,28,14,84,72,59,30.38,30.17,30,7,33,0.08
2013-1-9,43,36,28,39,32,24,89,81,72,30.42,29.83,28,5,28,0.02
2013-1-10,41,37,30,33,27,21,79,66,53,30.50,29.83,42,12,42,0.00
2013-1-11,34,30,25,26,20,18,76,65,49,30.53,30.30,19,5,20,0.00
2013-1-12,43,38,33,40,33,26,91,81,72,30.30,30.12,14,3,14,0.00
2013-1-13,49,44,41,49,44,40,100,99,91,30.16,29.95,24,4,24,0.00
2013-1-14,53,46,37,51,42,26,100,87,59,30.19,29.85,24,8,30,0.00
2013-1-15,37,33,29,26,23,18,79,65,55,30.32,30.17,18,5,18,0.00
2013-1-16,37,33,29,36,28,16,100,85,57,30.30,29.77,23,6,25,0.40
2013-1-17,40,31,13,40,23,0,100,73,35,30.14,29.73,29,9,30,0.04
2013-1-18,17,11,5,4,-2,-6,65,52,39,30.39,30.10,30,8,30,0.00
2013-1-19,39,30,16,33,25,0,100,81,46,30.38,29.93,24,3,24,0.09
2013-1-20,48,41,24,41,32,8,97,71,42,29.94,29.44,38,9,38,0.01
2013-1-21,24,18,13,16,3,0,87,48,35,30.03,29.77,29,6,29,0.00
2013-1-22,18,12,7,16,3,-6,90,63,46,29.95,29.78,24,7,24,0.00
2013-1-23,8,2,-2,-6,-11,-13,58,48,37,30.03,29.94,30,8,32,0.00
2013-1-24,10,3,-3,0,-9,-13,62,52,37,30.03,29.83,39,10,39,0.00
2013-1-25,19,10,2,4,-1,-6,68,56,41,30.13,30.01,29,8,30,0.00
2013-1-26,17,12,8,4,1,0,67,55,42,30.09,29.94,34,10,34,0.00
2013-1-27,22,14,8,8,4,0,67,57,49,30.37,30.05,32,9,32,0.00
2013-1-28,25,19,10,21,4,0,83,51,28,30.39,30.10,17,4,17,0.00
2013-1-29,35,28,19,28,20,14,85,71,56,30.26,30.08,14,2,14,0.00
2013-1-30,55,45,35,55,44,28,100,96,77,30.21,29.49,41,12,43,0.13
2013-1-31,55,46,32,55,40,18,100,82,51,29.51,28.88,52,13,52,0.26
2013-2-1,33,24,14,18,9,4,64,48,39,29.99,29.38,29,9,30,0.00
2013-2-2,24,18,10,21,6,0,83,59,40,30.20,29.97,25,4,29,0.00
2013-2-3,28,23,20,23,20,16,96,85,76,30.08,29.64,21,6,21,0.01
2013-2-4,27,21,14,16,10,-6,86,61,37,29.80,29.54,31,10,31,0.00
2013-2-5,22,15,10,8,-1,-6,58,44,32,30.05,29.80,23,5,24,0.00
2013-2-6,33,24,15,31,16,4,99,70,41,30.22,29.93,26,4,28,0.07
2013-2-7,17,10,6,4,-4,-13,59,46,35,30.63,30.22,30,9,30,0.00
2013-2-8,20,12,4,18,8,-6,95,78,47,30.63,29.93,32,7,34,0.00
2013-2-9,18,15,12,16,14,11,95,89,81,30.01,29.60,48,18,49,0.00
2013-2-10,32,22,16,14,10,4,85,57,39,30.36,29.98,42,13,42,0.00
2013-2-11,44,31,17,44,26,4,100,81,42,30.35,29.57,30,5,30,0.43
2013-2-12,41,38,34,41,34,29,100,84,68,29.74,29.49,19,6,22,0.03
2013-2-13,41,36,32,31,28,26,88,70,54,29.81,29.71,15,4,16,0.00
2013-2-14,38,32,27,29,23,18,82,66,48,30.02,29.72,21,6,21,0.00
2013-2-15,43,38,27,39,34,21,91,84,69,30.03,29.95,26,7,28,0.00
2013-2-16,42,34,27,40,33,28,100,96,84,29.96,29.74,22,7,22,0.00
2013-2-17,27,23,19,28,21,14,99,91,74,29.75,28.92,50,17,50,0.09
2013-2-18,28,21,15,14,8,4,76,53,42,29.88,29.23,38,12,40,0.02
2013-2-19,42,31,21,40,18,4,99,57,35,30.09,29.75,26,6,26,0.08
2013-2-20,45,37,29,45,31,18,100,79,58,29.75,29.39,33,8,34,0.51
2013-2-21,34,28,24,32,21,14,98,73,61,30.08,29.57,29,9,29,0.00
2013-2-22,38,32,26,28,24,21,81,70,50,30.39,30.08,27,7,27,0.00
2013-2-23,32,30,26,28,26,21,91,85,72,30.38,30.09,23,6,23,0.00
2013-2-24,33,31,28,29,28,23,99,88,79,30.09,29.81,24,7,24,0.00
2013-2-25,39,28,23,23,18,8,83,65,29,30.25,29.88,17,5,17,0.00
2013-2-26,43,32,23,28,23,11,90,68,48,30.39,30.25,15,2,15,0.00
2013-2-27,38,34,27,33,30,26,100,86,71,30.32,29.81,32,8,34,0.02
2013-2-28,39,36,33,39,36,33,100,100,100,29.81,29.52,30,9,30,0.93
2013-3-1,34,32,30,35,32,29,100,99,95,29.63,29.52,19,7,19,0.03
2013-3-2,36,33,31,35,33,29,100,97,92,29.61,29.56,22,10,23,0.06
2013-3-3,42,36,34,38,36,33,100,96,78,29.60,29.47,16,5,16,0.04
2013-3-4,35,33,31,35,33,31,100,98,93,29.65,29.42,19,6,20,0.14
2013-3-5,42,36,34,37,35,33,100,93,78,30.16,29.65,23,7,23,0.02
2013-3-6,36,34,32,33,30,26,97,85,73,30.31,30.15,29,10,30,0.00
2013-3-7,37,34,32,29,27,26,81,74,64,30.26,30.09,35,11,37,0.01
2013-3-8,45,36,30,28,26,24,82,68,44,30.23,30.06,30,10,30,0.00
2013-3-9,41,33,28,29,26,23,84,74,55,30.41,30.20,22,7,23,0.00
2013-3-10,34,31,28,32,27,24,89,83,75,30.46,30.32,13,4,18,0.00
2013-3-11,42,39,34,40,36,31,98,88,79,30.36,30.21,20,5,20,0.00
2013-3-12,49,44,40,47,43,39,100,94,84,30.23,29.89,31,10,33,0.27
2013-3-13,48,44,37,48,43,31,100,97,75,29.90,29.64,39,8,42,1.46
2013-3-14,43,35,26,32,27,21,99,71,45,29.71,29.62,19,5,20,0.00
2013-3-15,33,26,19,21,15,11,86,61,38,29.74,29.61,28,8,32,0.00
2013-3-16,34,29,24,23,15,11,75,55,39,29.89,29.61,20,7,21,0.00
2013-3-17,29,24,18,14,8,0,65,47,29,30.27,29.89,35,10,35,0.00
2013-3-18,32,23,14,11,3,0,48,37,26,30.42,30.27,25,6,25,0.00
2013-3-19,30,27,25,28,21,8,100,80,40,30.33,29.64,31,9,31,0.00
2013-3-20,33,27,19,29,22,18,100,83,69,29.71,29.53,30,8,31,0.00
2013-3-21,38,32,27,29,24,16,94,71,44,29.80,29.61,19,5,20,0.00
2013-3-22,40,32,24,29,21,16,94,66,38,29.61,29.55,20,7,22,0.00
2013-3-23,39,33,26,28,22,18,73,63,47,29.59,29.41,28,8,28,0.00
2013-3-24,43,37,32,31,27,24,76,66,52,29.77,29.55,23,8,24,0.00
2013-3-25,41,36,29,33,30,28,96,77,60,29.78,29.61,18,4,19,0.00
2013-3-26,45,37,30,33,28,24,80,68,48,29.69,29.52,25,8,26,0.00
2013-3-27,39,36,34,38,34,28,99,91,72,29.86,29.67,22,8,22,0.15
2013-3-28,47,40,35,37,33,31,92,76,54,29.95,29.85,16,6,16,0.00
2013-3-29,53,45,39,38,35,31,87,68,49,29.99,29.93,15,4,16,0.00
2013-3-30,52,43,35,33,28,18,82,57,26,30.09,29.98,16,4,16,0.00
2013-3-31,51,42,35,39,23,14,92,48,27,30.15,29.94,19,5,19,0.00
2013-4-1,46,42,36,45,40,33,100,92,73,29.94,29.49,34,8,34,1.49
2013-4-2,36,32,28,33,16,11,89,51,34,29.80,29.62,24,7,27,0.01
2013-4-3,40,33,28,21,16,11,69,48,37,29.97,29.76,30,8,32,0.00
2013-4-4,47,38,30,33,18,8,69,44,21,30.17,29.96,26,8,29,0.00
2013-4-5,48,43,37,35,32,28,78,65,44,29.99,29.67,29,9,30,0.00
2013-4-6,37,32,28,28,14,4,69,45,25,30.35,29.75,37,12,37,0.00
2013-4-7,42,36,26,39,23,8,85,60,40,30.37,29.96,36,8,36,0.01
2013-4-8,55,47,40,41,38,33,93,72,50,30.18,29.89,38,8,38,0.00
2013-4-9,41,39,37,40,38,33,100,94,76,30.19,29.95,20,3,20,0.25
2013-4-10,53,44,38,45,42,39,100,92,71,30.02,29.91,18,3,18,0.05
2013-4-11,48,42,36,44,26,16,95,54,32,30.21,29.89,22,8,22,0.00
2013-4-12,38,34,32,35,25,16,99,71,44,30.29,29.96,20,7,25,0.28
2013-4-13,41,37,33,38,36,33,100,94,86,29.97,29.78,18,5,18,0.17
2013-4-14,44,40,37,43,39,36,100,95,89,30.17,29.94,16,3,16,0.11
2013-4-15,46,39,36,39,37,35,100,91,75,30.47,30.18,19,4,19,0.00
2013-4-16,48,43,37,47,40,36,98,89,70,30.47,29.92,44,9,44,0.18
2013-4-17,55,49,43,48,35,23,97,60,39,30.39,29.93,37,10,37,0.01
2013-4-18,46,40,34,38,29,18,86,62,42,30.52,30.23,24,6,25,0.00
2013-4-19,64,56,46,59,52,32,100,88,54,30.24,29.73,40,11,40,0.00
2013-4-20,58,52,44,58,47,32,100,85,59,30.14,29.63,43,9,43,0.27
2013-4-21,48,42,35,32,25,18,70,51,34,30.73,30.14,25,7,25,0.01
2013-4-22,43,39,33,37,28,18,91,66,46,30.87,30.72,20,5,20,0.00
2013-4-23,42,38,33,42,36,31,100,91,80,30.72,30.26,19,5,19,0.18
2013-4-24,50,45,42,50,45,42,100,100,100,30.25,29.80,15,4,15,1.40
2013-4-25,61,51,44,50,44,33,100,78,44,30.31,29.85,37,7,38,0.11
2013-4-26,52,45,38,37,33,31,84,62,48,30.47,30.31,22,5,23,0.00
2013-4-27,60,47,34,38,31,26,96,57,32,30.48,30.32,15,3,16,0.00
2013-4-28,58,47,39,44,39,32,92,75,53,30.40,30.29,19,4,19,0.00
2013-4-29,63,51,39,41,36,28,96,62,25,30.35,30.28,19,4,19,0.00
2013-4-30,66,52,38,43,35,26,93,58,23,30.42,30.30,16,4,16,0.00
2013-5-1,69,52,39,43,36,21,91,59,23,30.51,30.41,16,3,16,0.00
2013-5-2,57,48,42,44,39,21,91,71,26,30.58,30.46,20,5,20,0.00
2013-5-3,57,48,41,42,40,37,88,73,55,30.59,30.42,18,5,18,0.00
2013-5-4,51,45,40,40,36,32,94,71,50,30.46,30.37,24,5,24,0.00
2013-5-5,61,49,38,43,38,36,97,68,42,30.38,30.29,17,4,17,0.00
2013-5-6,61,50,42,46,41,36,100,75,54,30.33,30.21,17,3,17,0.00
2013-5-7,70,52,43,54,47,43,100,86,47,30.23,30.15,21,3,21,0.00
2013-5-8,65,50,44,54,49,44,100,95,70,30.32,30.21,17,5,17,0.00
2013-5-9,53,50,48,54,50,48,100,100,99,30.22,29.98,14,5,14,0.48
2013-5-10,66,52,47,58,51,48,100,97,74,30.02,29.94,20,3,21,0.00
2013-5-11,62,53,45,60,52,45,100,97,86,30.01,29.76,30,8,30,0.18
2013-5-12,60,54,48,60,54,48,100,100,94,29.77,29.58,28,4,28,0.23
2013-5-13,54,49,44,48,38,32,99,67,44,30.02,29.73,25,7,25,0.01
2013-5-14,58,48,44,39,35,32,74,60,40,30.03,29.95,17,4,18,0.00
2013-5-15,61,51,41,48,35,28,99,59,29,30.03,29.74,29,6,30,0.25
2013-5-16,70,56,46,55,49,42,100,79,42,29.79,29.59,34,6,34,0.02
2013-5-17,57,52,49,45,41,38,83,67,53,30.23,29.78,23,6,25,0.00
2013-5-18,54,47,41,42,39,37,92,74,62,30.40,30.22,24,5,24,0.00
2013-5-19,51,47,41,48,43,38,100,87,65,30.44,30.31,20,6,20,0.00
2013-5-20,54,50,47,54,50,47,100,100,97,30.32,29.99,41,6,41,0.68
2013-5-21,51,47,46,48,47,46,100,100,92,30.13,30.04,19,4,19,0.06
2013-5-22,50,48,46,50,48,46,100,100,100,30.10,29.99,22,6,22,0.56
2013-5-23,65,54,46,63,54,46,100,99,93,30.03,29.88,28,6,28,0.00
2013-5-24,64,58,50,64,58,50,100,100,99,29.90,29.73,42,9,42,1.91
2013-5-25,50,49,47,50,49,47,100,100,100,29.87,29.75,20,6,20,0.59
2013-5-26,49,47,45,49,46,43,100,98,91,29.94,29.67,22,6,22,0.41
2013-5-27,62,51,43,44,41,37,97,71,43,30.20,29.93,25,5,26,0.01
2013-5-28,69,56,41,48,40,32,100,61,31,30.28,30.20,22,4,24,0.00
2013-5-29,55,50,48,52,49,38,100,97,53,30.29,30.05,19,6,19,0.45
2013-5-30,81,62,48,66,56,48,100,84,55,30.06,29.99,12,2,12,0.02
2013-5-31,87,73,56,65,61,56,100,69,41,30.07,29.90,21,4,21,0.00
2013-6-1,91,74,58,66,61,54,91,67,41,29.95,29.84,26,4,26,0.00
2013-6-2,84,68,56,68,60,54,95,78,58,29.85,29.71,35,6,35,0.04
2013-6-3,69,63,54,64,60,54,100,90,73,29.86,29.74,22,5,25,0.06
2013-6-4,65,60,55,60,46,41,99,61,44,30.03,29.78,22,5,22,0.00
2013-6-5,70,59,51,48,42,38,70,55,32,30.18,30.03,21,5,21,0.00
2013-6-6,64,58,50,52,45,38,93,63,41,30.26,30.18,17,3,17,0.00
2013-6-7,58,54,51,53,49,44,100,87,64,30.22,30.05,13,3,13,0.00
2013-6-8,61,55,51,58,55,51,100,97,86,30.06,29.67,19,4,19,0.86
2013-6-9,68,58,51,58,54,50,100,87,66,30.16,29.99,14,3,14,0.00
2013-6-10,69,60,54,57,53,50,100,78,52,30.26,30.10,13,4,13,0.00
2013-6-11,56,53,50,54,52,50,100,98,86,30.11,29.57,23,5,23,0.01
2013-6-12,58,54,50,57,53,50,100,100,95,29.73,29.51,9,4,9,0.08
2013-6-13,70,58,51,55,52,50,100,82,57,29.84,29.72,9,4,9,0.07
2013-6-14,59,55,52,53,49,43,96,81,62,29.78,29.71,9,3,9,0.00
2013-6-15,75,64,50,53,47,42,94,59,32,29.90,29.74,9,4,9,0.00
2013-6-16,76,66,55,55,48,43,92,56,35,29.93,29.77,9,4,9,0.00
2013-6-17,78,65,54,61,58,54,100,80,48,29.87,29.75,9,4,9,0.33
2013-6-18,71,63,58,59,53,50,95,72,50,29.98,29.85,9,3,9,0.00
2013-6-19,72,63,54,54,48,42,89,61,38,30.16,29.95,9,3,9,0.00
2013-6-20,76,64,50,54,49,45,94,61,34,30.28,30.15,9,3,9,0.00
2013-6-21,78,66,57,59,54,48,93,67,41,30.26,30.18,9,4,9,0.00
2013-6-22,74,64,57,63,56,52,91,78,60,30.24,30.14,9,2,9,0.00
2013-6-23,76,62,56,65,58,54,100,90,66,30.18,29.98,9,2,9,0.05
2013-6-24,88,75,63,72,66,61,100,78,55,29.99,29.82,9,3,9,0.05
2013-6-25,88,77,68,69,65,60,100,68,42,29.87,29.72,9,3,9,0.21
2013-6-26,71,63,57,69,63,57,100,99,95,29.93,29.73,9,3,9,0.03
2013-6-27,58,53,52,57,53,52,100,99,95,29.96,29.90,9,5,9,0.00
2013-6-28,65,58,54,65,58,54,100,100,100,29.93,29.64,9,4,9,2.03
2013-6-29,72,64,58,69,63,57,100,98,85,29.77,29.63,9,4,9,0.03
2013-6-30,74,67,59,69,65,57,100,94,82,29.98,29.74,9,4,9,0.00
2013-7-1,73,63,56,66,61,56,100,94,79,30.16,29.97,9,2,9,0.05
2013-7-2,67,59,56,66,59,56,100,100,97,30.27,30.14,9,3,9,0.71
2013-7-3,79,63,57,68,60,56,100,91,60,30.23,30.13,9,2,9,0.00
2013-7-4,91,77,63,72,68,62,100,77,50,30.19,30.07,9,3,9,0.00
2013-7-5,92,80,66,72,70,64,96,72,50,30.11,30.01,9,3,9,0.00
2013-7-6,89,80,71,72,69,64,91,71,55,30.03,29.91,9,3,9,0.00
2013-7-7,90,81,71,67,65,62,75,59,41,29.96,29.88,9,4,9,0.00
2013-7-8,79,68,61,66,61,53,91,77,55,30.12,29.93,9,3,9,0.11
2013-7-9,64,61,60,63,60,55,100,96,78,30.19,30.11,9,3,9,0.02
2013-7-10,67,60,58,66,59,57,100,100,97,30.15,29.83,9,5,9,0.00
2013-7-11,76,68,60,72,66,59,100,95,79,29.99,29.79,9,2,9,0.04
2013-7-12,77,68,61,67,60,57,97,75,55,30.26,29.98,9,3,9,0.00
2013-7-13,84,70,58,64,58,53,100,71,42,30.35,30.25,9,3,9,0.00
2013-7-14,89,75,60,67,62,56,94,68,48,30.32,30.19,9,3,9,0.00
2013-7-15,93,79,64,70,66,61,96,67,38,30.20,30.05,9,2,9,0.00
2013-7-16,89,77,69,69,63,56,75,64,49,30.22,30.08,9,3,9,0.00
2013-7-17,80,72,64,67,61,53,96,68,57,30.24,29.92,9,4,9,0.18
2013-7-18,85,75,69,69,64,49,100,72,39,30.03,29.93,9,3,9,0.00
2013-7-19,87,76,64,74,68,61,100,80,59,30.01,29.65,9,4,9,0.02
2013-7-20,90,80,69,72,68,64,95,69,49,29.79,29.61,9,4,9,0.26
2013-7-21,78,68,61,63,56,53,83,68,50,30.08,29.79,9,2,9,0.00
2013-7-22,70,63,57,60,57,54,96,81,61,30.10,30.00,9,3,9,0.00
2013-7-23,65,61,59,65,61,58,100,100,94,30.01,29.57,9,3,9,1.39
2013-7-24,82,68,61,71,64,54,100,88,68,29.99,29.58,9,3,9,0.00
2013-7-25,73,63,56,60,54,51,95,74,54,30.18,29.98,9,4,9,0.00
2013-7-26,65,63,62,65,63,60,100,100,92,30.14,29.86,9,2,9,2.42
2013-7-27,80,69,60,66,63,59,100,82,62,30.09,29.86,9,4,9,0.05
2013-7-28,70,63,58,66,62,57,100,95,81,30.13,30.06,9,3,9,0.34
2013-7-29,69,63,60,66,62,60,100,97,90,30.12,30.02,9,3,9,0.01
2013-7-30,79,68,60,68,62,59,100,85,53,30.11,30.01,9,3,9,0.00
2013-7-31,80,70,61,61,57,53,86,64,49,30.13,30.01,14,3,14,0.00
2013-8-1,74,66,59,66,60,56,97,85,64,30.09,29.97,17,4,17,0.00
2013-8-2,67,64,60,66,63,59,100,100,97,29.97,29.81,14,3,14,0.61
2013-8-3,74,63,55,66,60,55,100,92,67,29.87,29.75,18,2,18,0.05
2013-8-4,79,68,61,61,59,56,91,75,50,29.82,29.74,15,3,15,0.00
2013-8-5,71,64,57,56,54,47,88,72,55,30.03,29.81,18,4,18,0.00
2013-8-6,77,66,55,56,51,47,80,58,44,30.19,30.02,18,4,18,0.00
2013-8-7,76,65,56,60,53,45,91,67,41,30.25,30.18,16,3,16,0.00
2013-8-8,68,63,59,66,61,56,100,95,88,30.20,30.08,17,4,17,0.20
2013-8-9,70,67,63,70,67,62,100,99,95,30.09,29.71,28,6,39,1.77
2013-8-10,80,71,63,70,59,49,100,71,37,29.99,29.72,17,4,18,0.00
2013-8-11,78,67,58,54,52,49,79,60,43,30.05,29.97,16,4,16,0.00
2013-8-12,80,69,59,60,56,53,93,66,44,30.03,29.93,17,3,17,0.00
2013-8-13,75,62,58,66,60,56,100,94,71,29.95,29.76,14,3,14,0.00
2013-8-14,73,63,58,66,60,49,100,89,64,29.85,29.63,19,4,19,0.00
2013-8-15,76,65,56,54,52,50,82,63,44,30.11,29.84,18,5,21,0.00
2013-8-16,76,65,55,59,55,50,100,73,47,30.23,30.10,17,3,17,0.00
2013-8-17,79,66,55,61,56,51,100,74,45,30.30,30.22,14,3,14,0.00
2013-8-18,78,67,58,60,56,51,90,70,49,30.30,30.06,16,3,16,0.00
2013-8-19,83,72,59,65,61,57,99,72,52,30.07,29.88,14,3,15,0.00
2013-8-20,84,74,66,66,62,59,87,68,52,30.10,29.95,15,3,15,0.00
2013-8-21,86,73,60,65,61,58,97,68,48,30.16,30.01,17,3,17,0.00
2013-8-22,85,75,61,68,63,59,96,69,47,30.02,29.77,20,4,20,0.00
2013-8-23,74,67,58,67,58,51,93,76,51,30.16,29.76,16,5,16,0.00
2013-8-24,75,64,53,53,50,47,86,62,37,30.33,30.16,12,3,12,0.00
2013-8-25,79,65,54,56,52,47,95,65,36,30.38,30.20,14,3,14,0.00
2013-8-26,75,66,60,64,58,47,92,79,50,30.20,29.90,17,2,18,0.02
2013-8-27,81,68,60,67,63,58,100,85,63,29.95,29.88,14,2,14,0.00
2013-8-28,71,63,58,65,61,57,100,95,80,30.04,29.93,18,4,18,0.02
2013-8-29,66,62,57,64,58,54,100,90,74,30.16,30.04,16,4,16,0.09
2013-8-30,72,62,52,63,57,52,100,86,67,30.05,29.81,14,3,14,0.00
2013-8-31,71,64,60,66,63,59,100,97,81,29.89,29.80,18,4,18,0.21
2013-9-1,80,68,61,71,65,61,100,94,70,30.00,29.80,13,3,14,0.04
2013-9-2,63,61,60,63,61,59,100,100,100,30.04,29.80,20,4,20,2.33
2013-9-3,75,65,60,70,64,60,100,98,82,29.82,29.74,11,2,11,1.08
2013-9-4,78,69,61,65,61,56,100,80,51,29.92,29.75,15,3,15,0.00
2013-9-5,65,59,51,59,51,41,100,78,44,30.15,29.89,13,2,13,0.49
2013-9-6,67,57,46,50,43,38,90,63,39,30.24,30.07,18,3,18,0.00
2013-9-7,72,65,57,57,52,47,84,64,45,30.08,29.82,14,4,14,0.00
2013-9-8,64,59,49,59,52,41,100,79,57,30.06,29.71,24,5,24,0.32
2013-9-9,64,56,46,53,43,39,80,65,46,30.22,30.06,17,4,22,0.00
2013-9-10,66,61,58,60,57,52,100,86,76,30.16,30.10,16,4,22,0.00
2013-9-11,81,67,56,73,63,56,100,90,71,30.11,29.93,19,3,23,0.00
2013-9-12,77,68,62,70,66,60,100,93,73,30.04,29.71,27,5,28,0.28
2013-9-13,67,63,59,66,62,59,100,100,99,29.72,29.61,22,3,25,0.34
2013-9-14,69,62,56,61,58,54,100,89,70,30.03,29.70,15,3,16,0.00
2013-9-15,66,59,52,54,51,48,99,77,55,30.15,30.03,16,3,16,0.00
2013-9-16,64,56,46,56,51,36,98,84,68,30.26,29.99,22,4,25,0.00
2013-9-17,63,52,41,48,42,35,87,71,51,30.40,30.26,12,4,16,0.00
2013-9-18,70,60,48,50,46,42,92,62,38,30.32,30.10,20,3,21,0.00
2013-9-19,77,63,51,54,49,44,93,63,42,30.14,30.03,21,3,21,0.00
2013-9-20,73,61,52,55,52,44,96,75,50,30.14,30.05,15,4,16,0.00
2013-9-21,66,59,54,60,57,54,100,95,78,30.10,29.86,29,7,29,0.00
2013-9-22,66,62,56,64,61,52,100,95,82,29.86,29.65,33,8,36,1.07
2013-9-23,56,52,47,52,44,42,89,77,66,29.91,29.72,23,6,24,0.00
2013-9-24,52,50,46,47,44,41,94,81,72,29.90,29.82,17,4,18,0.06
2013-9-25,60,53,50,50,48,46,90,82,67,29.98,29.84,21,6,21,0.00
2013-9-26,61,54,49,53,50,47,94,84,70,30.14,29.97,18,6,19,0.00
2013-9-27,71,60,53,55,53,50,97,80,52,30.28,30.14,12,3,13,0.00
2013-9-28,69,57,48,56,51,48,100,84,59,30.38,30.28,12,2,12,0.00
2013-9-29,70,55,45,56,49,44,100,81,47,30.31,30.16,11,2,11,0.00
2013-9-30,60,53,48,54,52,48,100,95,77,30.19,30.00,11,2,11,0.00
2013-10-1,74,59,53,58,53,50,100,82,44,30.01,29.83,14,3,14,0.00
2013-10-2,77,64,52,60,56,49,100,76,54,29.89,29.74,13,3,17,0.00
2013-10-3,73,65,57,50,47,41,66,52,39,30.09,29.88,20,4,20,0.00
2013-10-4,70,60,52,50,46,41,85,61,42,30.14,30.04,10,2,10,0.00
2013-10-5,62,55,48,47,44,40,85,68,50,30.20,30.12,10,2,10,0.00
2013-10-6,56,51,46,48,39,35,92,64,48,30.34,30.19,14,4,14,0.04
2013-10-7,63,56,47,62,55,45,100,97,91,30.30,29.86,41,11,41,0.10
2013-10-8,64,56,46,64,47,38,100,73,51,30.42,29.85,34,6,34,0.32
2013-10-9,61,50,42,43,40,38,91,70,48,30.53,30.40,13,2,13,0.00
2013-10-10,65,52,44,48,44,39,95,76,51,30.40,30.23,10,2,10,0.00
2013-10-11,73,55,46,54,49,41,96,82,49,30.26,30.15,17,2,17,0.00
2013-10-12,57,52,44,53,47,41,98,85,64,30.47,30.26,14,4,14,0.00
2013-10-13,56,49,42,48,44,40,100,83,62,30.52,30.42,15,3,15,0.00
2013-10-14,61,53,47,50,45,42,87,74,55,30.43,30.29,13,3,13,0.00
2013-10-15,64,56,51,53,51,48,97,85,64,30.33,30.26,17,2,17,0.00
2013-10-16,56,54,51,55,53,50,100,99,93,30.29,29.93,18,4,18,0.17
2013-10-17,62,55,51,57,54,51,100,98,85,29.93,29.80,16,2,16,0.01
2013-10-18,64,56,50,61,52,46,100,88,68,29.84,29.60,23,5,23,0.22
2013-10-19,62,55,49,50,44,40,88,68,47,29.96,29.83,15,4,16,0.00
2013-10-20,62,56,50,55,44,32,100,70,38,29.95,29.71,18,5,18,0.02
2013-10-21,60,52,45,47,38,33,82,61,41,30.10,29.94,20,4,20,0.00
2013-10-22,58,55,48,55,51,44,95,85,76,30.06,29.72,29,6,32,0.00
2013-10-23,53,47,41,45,38,32,94,72,48,29.80,29.60,14,2,14,0.00
2013-10-24,48,45,39,39,32,26,80,61,42,29.80,29.59,21,4,21,0.00
2013-10-25,51,44,38,35,32,28,79,63,48,30.09,29.80,18,4,20,0.00
2013-10-26,50,43,35,41,33,26,93,70,45,30.14,29.91,22,4,22,0.07
2013-10-27,54,46,41,43,39,31,97,77,60,30.00,29.81,16,3,17,0.06
2013-10-28,55,44,36,40,33,28,76,65,49,30.35,29.99,25,5,31,0.00
2013-10-29,47,37,30,29,26,21,82,64,36,30.48,30.34,14,3,14,0.00
2013-10-30,48,39,32,37,30,24,96,70,40,30.38,30.19,13,2,13,0.00
2013-10-31,59,46,32,58,41,28,99,84,62,30.29,29.84,33,7,33,13.15
2013-11-1,64,61,58,62,58,53,99,91,76,29.85,29.39,53,13,53,0.13
2013-11-2,62,56,49,54,47,43,87,75,53,29.79,29.55,22,4,22,0.00
2013-11-3,48,38,33,43,26,18,91,62,41,30.40,29.77,25,9,26,0.03
2013-11-4,40,35,30,24,22,21,67,57,45,30.74,30.40,22,7,22,0.00
2013-11-5,45,39,29,37,31,24,89,73,60,30.76,30.55,16,2,16,0.00
2013-11-6,53,48,39,50,43,35,89,82,76,30.55,30.02,27,6,29,0.00
2013-11-7,59,53,40,57,50,35,99,90,77,30.03,29.66,33,9,33,0.23
2013-11-8,43,39,35,35,28,26,80,64,49,29.93,29.74,21,5,23,0.00
2013-11-9,41,37,32,26,24,21,70,59,46,30.15,29.92,24,5,24,0.00
2013-11-10,48,41,33,45,37,24,100,86,66,30.12,29.72,25,4,28,0.08
2013-11-11,47,40,37,40,34,29,99,78,59,30.01,29.72,24,5,24,0.01
2013-11-12,47,35,27,40,24,16,83,64,57,30.07,29.84,28,7,28,0.00
2013-11-13,28,26,25,18,17,16,69,66,64,30.18,30.05,27,7,27,0.01
2013-11-22,41,40,38,28,28,28,64,61,58,30.07,30.02,0,0,0,0.00
2013-11-23,39,32,27,21,17,16,66,53,40,29.75,29.67,13,3,13,0.04
2013-11-24,27,22,18,18,9,4,68,54,43,29.95,29.64,19,2,23,0.04
2013-11-25,27,20,15,16,6,0,75,50,31,30.36,29.95,17,1,17,0.01
2013-11-26,34,30,21,32,26,14,96,85,67,30.38,30.26,8,0,8,0.07
2013-11-27,57,49,32,57,49,31,100,100,96,30.27,29.18,19,2,19,2.53
2013-11-28,41,30,19,41,22,8,100,73,47,30.41,29.30,16,2,16,0.04
2013-11-29,24,18,11,14,11,8,88,69,50,30.77,30.40,13,1,13,0.00
2013-11-30,32,17,6,29,14,8,98,82,53,30.86,30.50,6,0,6,0.00
2013-12-1,39,36,33,39,35,28,100,96,78,30.50,30.18,6,0,8,0.26
2013-12-2,43,38,34,43,39,35,100,100,99,30.18,30.00,9,1,9,0.21
2013-12-3,39,37,35,39,37,33,100,99,94,30.00,29.86,14,1,14,0.02
2013-12-4,42,33,24,33,30,24,100,85,67,30.27,29.87,16,1,16,0.00
2013-12-5,49,35,21,49,35,21,100,98,92,30.36,29.99,4,0,4,0.05
2013-12-6,49,43,35,49,43,32,100,99,91,30.15,29.91,7,0,7,0.15
2013-12-7,35,31,23,32,22,11,100,68,50,30.43,30.11,13,1,13,0.01
2013-12-8,26,20,13,18,12,8,92,65,47,30.66,30.42,13,1,13,0.00
2013-12-9,34,26,19,35,21,8,100,81,53,30.63,29.88,7,2,10,0.00
2013-12-10,34,28,18,35,27,14,100,94,74,29.92,29.77,6,0,6,0.00
2013-12-11,28,19,7,18,14,4,98,80,61,30.15,29.92,4,0,4,0.00
2013-12-12,13,9,1,11,4,-6,96,73,46,30.28,30.04,7,0,7,0.00
2013-12-13,23,14,2,14,5,-6,85,63,44,30.43,29.92,7,0,7,0.00
2013-12-14,10,4,-4,0,-5,-13,73,61,46,30.69,30.43,7,0,6,0.00
2013-12-15,25,14,8,26,14,0,100,93,60,30.51,29.39,12,0,12,0.00
2013-12-16,20,11,1,21,8,-6,97,82,58,30.25,29.69,6,0,6,0.00
2013-12-17,14,4,-14,14,0,-13,94,77,67,30.40,30.11,4,0,4,0.00
2013-12-18,21,16,3,21,16,4,98,95,89,30.11,29.85,7,0,7,0.00
2013-12-19,35,24,2,33,23,4,100,94,87,30.14,29.98,8,0,8,1.73
2013-12-20,25,23,20,26,24,21,100,100,98,30.21,30.14,4,0,5,0.00